AOM118C MDPC-CYUL
Flight info
| Callsign | AOM118C |
|---|---|
| Flight time | N/A |
| Altitude | 37000 |
| Route | CHUMA2Q CHUMA DCT ALERI L454 LUCTI/M082F370 L454 OKONU/N0471F370 Y484 WEBBB DCT BIZEX Q133 PBERG CARTR5 |
| Aircraft | CL60/M-SBDE1E2E3FGHIJ4J5J7M3RWXYZ/LB1V1D1 |
Departure
| Time | 2026-04-27 08:53 |
|---|---|
| Airport | Punta Cana International Airport (MDPC) |
Arrival
| Time | N/A |
|---|---|
| Airport | Montreal / Pierre Elliott Trudeau International Airport (CYUL) |
| Time | Latitude | Longitude | Altitude | Speed | Heading |
|---|---|---|---|---|---|
| 2026-04-27 08:13 | 18.56404 | -68.35799 | 37 ft | 0 kts | 355° |
| 2026-04-27 08:23 | 18.56404 | -68.35800 | 37 ft | 0 kts | 358° |
| 2026-04-27 08:48 | 18.56407 | -68.35800 | 37 ft | 1 kts | 358° |
| 2026-04-27 08:48 | 18.56431 | -68.35796 | 37 ft | 5 kts | 21° |
| 2026-04-27 08:49 | 18.56469 | -68.35779 | 37 ft | 6 kts | 3° |
| 2026-04-27 08:49 | 18.56525 | -68.35782 | 37 ft | 9 kts | 11° |
| 2026-04-27 08:49 | 18.56555 | -68.35770 | 38 ft | 8 kts | 17° |
| 2026-04-27 08:49 | 18.56577 | -68.35702 | 38 ft | 14 kts | 95° |
| 2026-04-27 08:50 | 18.56597 | -68.35592 | 38 ft | 18 kts | 77° |
| 2026-04-27 08:50 | 18.56626 | -68.35429 | 38 ft | 26 kts | 84° |
| 2026-04-27 08:50 | 18.56659 | -68.35261 | 40 ft | 17 kts | 50° |
| 2026-04-27 08:50 | 18.56724 | -68.35278 | 38 ft | 11 kts | 297° |
| 2026-04-27 08:51 | 18.56758 | -68.35340 | 38 ft | 0 kts | 300° |
| 2026-04-27 08:51 | 18.56760 | -68.35344 | 38 ft | 5 kts | 301° |
| 2026-04-27 08:52 | 18.56799 | -68.35411 | 37 ft | 11 kts | 303° |
| 2026-04-27 08:52 | 18.56816 | -68.35480 | 37 ft | 0 kts | 263° |
| 2026-04-27 08:52 | 18.56814 | -68.35490 | 37 ft | 11 kts | 265° |
| 2026-04-27 08:52 | 18.56782 | -68.35864 | 34 ft | 95 kts | 265° |
| 2026-04-27 08:53 | 18.56699 | -68.36825 | 55 ft | 164 kts | 265° |
| 2026-04-27 08:53 | 18.56606 | -68.38113 | 507 ft | 189 kts | 264° |
| 2026-04-27 08:53 | 18.56478 | -68.39550 | 1140 ft | 209 kts | 264° |
| 2026-04-27 08:53 | 18.56408 | -68.41164 | 1797 ft | 238 kts | 275° |
| 2026-04-27 08:54 | 18.57017 | -68.42853 | 2560 ft | 262 kts | 309° |
| 2026-04-27 08:54 | 18.58526 | -68.43942 | 3590 ft | 270 kts | 341° |
| 2026-04-27 08:54 | 18.60331 | -68.44527 | 4571 ft | 277 kts | 344° |
| 2026-04-27 08:54 | 18.62177 | -68.45115 | 5590 ft | 282 kts | 343° |
| 2026-04-27 08:55 | 18.64076 | -68.45728 | 6420 ft | 291 kts | 343° |
| 2026-04-27 08:55 | 18.66042 | -68.46365 | 6805 ft | 294 kts | 342° |
| 2026-04-27 08:55 | 18.67997 | -68.47002 | 6927 ft | 294 kts | 342° |
| 2026-04-27 08:55 | 18.69952 | -68.47640 | 6944 ft | 292 kts | 342° |
| 2026-04-27 08:56 | 18.71951 | -68.48079 | 6941 ft | 291 kts | 360° |
| 2026-04-27 08:56 | 18.74027 | -68.47819 | 7188 ft | 309 kts | 11° |
| 2026-04-27 08:56 | 18.76134 | -68.47430 | 8325 ft | 307 kts | 10° |
| 2026-04-27 08:56 | 18.78221 | -68.47056 | 9439 ft | 305 kts | 9° |
| 2026-04-27 08:57 | 18.82560 | -68.46280 | 10730 ft | 334 kts | 9° |
| 2026-04-27 08:57 | 18.84894 | -68.45863 | 11430 ft | 345 kts | 9° |
| 2026-04-27 08:57 | 18.87261 | -68.45441 | 12238 ft | 350 kts | 8° |
| 2026-04-27 08:58 | 18.89665 | -68.45011 | 13070 ft | 354 kts | 8° |
| 2026-04-27 08:58 | 18.92098 | -68.44577 | 13876 ft | 357 kts | 8° |
| 2026-04-27 08:58 | 18.94580 | -68.44134 | 14651 ft | 362 kts | 8° |
| 2026-04-27 08:58 | 18.97084 | -68.43687 | 15405 ft | 365 kts | 7° |
| 2026-04-27 08:59 | 18.99612 | -68.43237 | 16132 ft | 369 kts | 7° |
| 2026-04-27 08:59 | 19.02145 | -68.42785 | 16841 ft | 372 kts | 7° |
| 2026-04-27 08:59 | 19.04691 | -68.42332 | 17509 ft | 376 kts | 7° |
| 2026-04-27 08:59 | 19.07280 | -68.41870 | 18126 ft | 380 kts | 6° |
| 2026-04-27 09:00 | 19.09928 | -68.41399 | 18733 ft | 385 kts | 6° |
| 2026-04-27 09:00 | 19.12564 | -68.40929 | 19298 ft | 389 kts | 6° |
| 2026-04-27 09:00 | 19.15272 | -68.40446 | 19858 ft | 393 kts | 6° |
| 2026-04-27 09:00 | 19.17981 | -68.39963 | 20392 ft | 398 kts | 6° |
| 2026-04-27 09:01 | 19.20733 | -68.39472 | 20899 ft | 402 kts | 6° |
| 2026-04-27 09:01 | 19.23514 | -68.39253 | 21404 ft | 399 kts | 353° |
| 2026-04-27 09:01 | 19.26273 | -68.39409 | 21904 ft | 402 kts | 352° |
| 2026-04-27 09:01 | 19.29104 | -68.39572 | 22387 ft | 406 kts | 352° |
| 2026-04-27 09:02 | 19.31950 | -68.39732 | 22881 ft | 409 kts | 352° |
| 2026-04-27 09:02 | 19.34791 | -68.39893 | 23387 ft | 412 kts | 352° |
| 2026-04-27 09:02 | 19.37654 | -68.40054 | 23843 ft | 416 kts | 352° |
| 2026-04-27 09:02 | 19.40557 | -68.40218 | 24327 ft | 419 kts | 351° |
| 2026-04-27 09:03 | 19.43485 | -68.40383 | 24797 ft | 421 kts | 351° |
| 2026-04-27 09:03 | 19.46463 | -68.40551 | 25238 ft | 425 kts | 351° |
| 2026-04-27 09:03 | 19.49392 | -68.40717 | 25671 ft | 428 kts | 351° |
| 2026-04-27 09:03 | 19.52399 | -68.40886 | 26095 ft | 431 kts | 351° |
| 2026-04-27 09:04 | 19.55410 | -68.41055 | 26491 ft | 434 kts | 351° |
| 2026-04-27 09:04 | 19.58470 | -68.41227 | 26915 ft | 436 kts | 351° |
| 2026-04-27 09:04 | 19.61524 | -68.41398 | 27323 ft | 438 kts | 351° |
| 2026-04-27 09:04 | 19.64560 | -68.41568 | 27687 ft | 441 kts | 351° |
| 2026-04-27 09:05 | 19.67692 | -68.41744 | 28058 ft | 444 kts | 350° |
| 2026-04-27 09:05 | 19.70805 | -68.41919 | 28380 ft | 448 kts | 350° |
| 2026-04-27 09:05 | 19.73954 | -68.42096 | 28721 ft | 450 kts | 350° |
| 2026-04-27 09:05 | 19.77139 | -68.42275 | 29043 ft | 453 kts | 350° |
| 2026-04-27 09:06 | 19.80301 | -68.42452 | 29399 ft | 455 kts | 350° |
| 2026-04-27 09:06 | 19.83468 | -68.42631 | 29671 ft | 458 kts | 350° |
| 2026-04-27 09:06 | 19.86690 | -68.42812 | 30028 ft | 459 kts | 350° |
| 2026-04-27 09:06 | 19.89882 | -68.42991 | 30323 ft | 462 kts | 349° |
| 2026-04-27 09:07 | 19.93145 | -68.43175 | 30595 ft | 464 kts | 349° |
| 2026-04-27 09:07 | 19.96374 | -68.43356 | 30942 ft | 465 kts | 349° |
| 2026-04-27 09:07 | 19.99592 | -68.43535 | 31328 ft | 464 kts | 349° |
| 2026-04-27 09:07 | 20.02835 | -68.43716 | 31691 ft | 463 kts | 349° |
| 2026-04-27 09:08 | 20.06016 | -68.43894 | 32110 ft | 461 kts | 349° |
| 2026-04-27 09:08 | 20.09221 | -68.44074 | 32493 ft | 460 kts | 349° |
| 2026-04-27 09:08 | 20.12466 | -68.44256 | 32837 ft | 459 kts | 349° |
| 2026-04-27 09:08 | 20.15652 | -68.44435 | 33142 ft | 459 kts | 348° |
| 2026-04-27 09:09 | 20.18851 | -68.44615 | 33432 ft | 459 kts | 348° |
| 2026-04-27 09:09 | 20.22052 | -68.44797 | 33679 ft | 460 kts | 349° |
| 2026-04-27 09:09 | 20.25292 | -68.44980 | 33979 ft | 460 kts | 348° |
| 2026-04-27 09:09 | 20.28473 | -68.45160 | 34235 ft | 460 kts | 349° |
| 2026-04-27 09:10 | 20.31669 | -68.45340 | 34540 ft | 459 kts | 348° |
| 2026-04-27 09:10 | 20.34874 | -68.45521 | 34802 ft | 459 kts | 348° |
| 2026-04-27 09:10 | 20.38060 | -68.45702 | 35084 ft | 459 kts | 348° |
| 2026-04-27 09:10 | 20.41261 | -68.45883 | 35291 ft | 460 kts | 348° |
| 2026-04-27 09:11 | 20.44493 | -68.46066 | 35495 ft | 461 kts | 348° |
| 2026-04-27 09:11 | 20.47716 | -68.46249 | 35716 ft | 461 kts | 348° |
| 2026-04-27 09:11 | 20.50927 | -68.46432 | 35875 ft | 462 kts | 348° |
| 2026-04-27 09:11 | 20.54133 | -68.46614 | 36068 ft | 463 kts | 348° |
| 2026-04-27 09:12 | 20.57366 | -68.46797 | 36286 ft | 463 kts | 348° |
| 2026-04-27 09:12 | 20.60573 | -68.46979 | 36509 ft | 462 kts | 348° |
| 2026-04-27 09:12 | 20.63791 | -68.47162 | 36713 ft | 462 kts | 348° |
| 2026-04-27 09:12 | 20.67014 | -68.47344 | 36932 ft | 461 kts | 348° |
| 2026-04-27 09:13 | 20.70191 | -68.47524 | 37134 ft | 461 kts | 348° |
| 2026-04-27 09:13 | 20.73396 | -68.47707 | 37283 ft | 461 kts | 348° |
| 2026-04-27 09:13 | 20.76609 | -68.47890 | 37425 ft | 462 kts | 348° |
| 2026-04-27 09:14 | 20.83067 | -68.48259 | 37645 ft | 464 kts | 348° |
| 2026-04-27 09:14 | 20.86280 | -68.48442 | 37826 ft | 463 kts | 348° |
| 2026-04-27 09:14 | 20.89511 | -68.48626 | 37969 ft | 464 kts | 348° |
| 2026-04-27 09:15 | 20.96028 | -68.49000 | 37961 ft | 470 kts | 348° |
| 2026-04-27 09:15 | 21.02635 | -68.49380 | 37959 ft | 476 kts | 348° |
| 2026-04-27 09:16 | 21.09299 | -68.49762 | 37960 ft | 482 kts | 348° |
| 2026-04-27 09:16 | 21.16036 | -68.50147 | 37958 ft | 485 kts | 348° |
| 2026-04-27 09:17 | 21.22784 | -68.50533 | 37961 ft | 489 kts | 348° |
| 2026-04-27 09:17 | 21.29638 | -68.50925 | 37960 ft | 492 kts | 348° |
| 2026-04-27 09:18 | 21.36518 | -68.51318 | 37960 ft | 495 kts | 348° |
| 2026-04-27 09:18 | 21.43405 | -68.51713 | 37968 ft | 497 kts | 348° |
| 2026-04-27 09:19 | 21.50326 | -68.52110 | 37964 ft | 500 kts | 348° |
| 2026-04-27 09:19 | 21.57293 | -68.52510 | 37964 ft | 502 kts | 348° |
| 2026-04-27 09:20 | 21.64320 | -68.52918 | 37969 ft | 504 kts | 347° |
| 2026-04-27 09:20 | 21.71371 | -68.53349 | 37974 ft | 506 kts | 347° |
| 2026-04-27 09:21 | 21.78430 | -68.53773 | 37973 ft | 508 kts | 347° |
| 2026-04-27 09:21 | 21.85534 | -68.54195 | 37972 ft | 509 kts | 347° |
| 2026-04-27 09:22 | 21.92631 | -68.54614 | 37972 ft | 510 kts | 347° |
| 2026-04-27 09:22 | 21.99749 | -68.55031 | 37973 ft | 511 kts | 347° |
| 2026-04-27 09:23 | 22.06886 | -68.55447 | 37971 ft | 512 kts | 347° |
| 2026-04-27 09:23 | 22.14044 | -68.55865 | 37971 ft | 512 kts | 347° |
| 2026-04-27 09:24 | 22.21146 | -68.56277 | 37974 ft | 510 kts | 347° |
| 2026-04-27 09:24 | 22.28262 | -68.56692 | 37970 ft | 510 kts | 347° |
| 2026-04-27 09:25 | 22.35374 | -68.57106 | 37966 ft | 510 kts | 347° |
| 2026-04-27 09:25 | 22.42446 | -68.57517 | 37961 ft | 510 kts | 347° |
| 2026-04-27 09:26 | 22.49563 | -68.57932 | 37968 ft | 510 kts | 347° |
| 2026-04-27 09:26 | 22.56611 | -68.58343 | 37972 ft | 509 kts | 347° |
| 2026-04-27 09:27 | 22.63680 | -68.58756 | 37968 ft | 509 kts | 347° |
| 2026-04-27 09:27 | 22.70765 | -68.59171 | 37965 ft | 509 kts | 347° |
| 2026-04-27 09:28 | 22.77871 | -68.59585 | 37967 ft | 508 kts | 347° |
| 2026-04-27 09:28 | 22.84941 | -68.59999 | 37970 ft | 508 kts | 348° |
| 2026-04-27 09:29 | 22.92002 | -68.60413 | 37976 ft | 509 kts | 347° |
| 2026-04-27 09:29 | 22.99071 | -68.60834 | 37966 ft | 508 kts | 346° |
| 2026-04-27 09:30 | 23.05939 | -68.62054 | 37958 ft | 494 kts | 338° |
| 2026-04-27 09:30 | 23.12667 | -68.63694 | 37966 ft | 494 kts | 337° |
| 2026-04-27 09:31 | 23.19356 | -68.65315 | 37972 ft | 492 kts | 337° |
| 2026-04-27 09:31 | 23.26077 | -68.66947 | 37970 ft | 494 kts | 337° |
| 2026-04-27 09:32 | 23.32767 | -68.68565 | 37959 ft | 494 kts | 337° |
| 2026-04-27 09:32 | 23.39495 | -68.70195 | 37974 ft | 493 kts | 337° |
| 2026-04-27 09:33 | 23.46221 | -68.71824 | 37973 ft | 494 kts | 337° |
| 2026-04-27 09:33 | 23.52903 | -68.73444 | 37957 ft | 494 kts | 337° |
| 2026-04-27 09:34 | 23.59634 | -68.75078 | 37974 ft | 495 kts | 337° |
| 2026-04-27 09:34 | 23.66403 | -68.76731 | 37975 ft | 495 kts | 337° |
| 2026-04-27 09:35 | 23.73091 | -68.78364 | 37970 ft | 493 kts | 337° |
| 2026-04-27 09:35 | 23.79832 | -68.80012 | 37975 ft | 494 kts | 337° |
| 2026-04-27 09:36 | 23.86527 | -68.81652 | 37988 ft | 494 kts | 337° |
| 2026-04-27 09:36 | 23.93273 | -68.83304 | 37963 ft | 494 kts | 337° |
| 2026-04-27 09:37 | 23.99985 | -68.84951 | 37966 ft | 495 kts | 337° |
| 2026-04-27 09:37 | 24.06697 | -68.86597 | 37984 ft | 494 kts | 337° |
| 2026-04-27 09:38 | 24.13392 | -68.88241 | 37981 ft | 492 kts | 337° |
| 2026-04-27 09:38 | 24.20072 | -68.89885 | 37976 ft | 492 kts | 337° |
| 2026-04-27 09:39 | 24.26734 | -68.91524 | 37969 ft | 491 kts | 337° |
| 2026-04-27 09:39 | 24.33444 | -68.93179 | 37986 ft | 491 kts | 337° |
| 2026-04-27 09:40 | 24.40088 | -68.94817 | 37972 ft | 491 kts | 338° |
| 2026-04-27 09:40 | 24.46798 | -68.96452 | 37978 ft | 492 kts | 338° |
| 2026-04-27 09:41 | 24.53443 | -68.98068 | 37962 ft | 491 kts | 338° |
| 2026-04-27 09:41 | 24.60148 | -68.99702 | 37982 ft | 492 kts | 338° |
| 2026-04-27 09:42 | 24.66832 | -69.01332 | 37987 ft | 490 kts | 338° |
| 2026-04-27 09:42 | 24.73503 | -69.02962 | 37978 ft | 491 kts | 338° |
| 2026-04-27 09:43 | 24.80180 | -69.04596 | 37963 ft | 492 kts | 338° |
| 2026-04-27 09:43 | 24.86869 | -69.06233 | 37964 ft | 491 kts | 338° |
| 2026-04-27 09:44 | 24.93501 | -69.07858 | 37986 ft | 490 kts | 338° |
| 2026-04-27 09:44 | 25.00191 | -69.09483 | 37969 ft | 490 kts | 340° |
| 2026-04-27 09:45 | 25.06873 | -69.10872 | 37971 ft | 492 kts | 341° |
| 2026-04-27 09:45 | 25.13656 | -69.12268 | 37958 ft | 491 kts | 340° |
| 2026-04-27 09:46 | 25.20361 | -69.13652 | 37952 ft | 492 kts | 340° |
| 2026-04-27 09:46 | 25.27083 | -69.15039 | 37955 ft | 490 kts | 341° |
| 2026-04-27 09:47 | 25.33780 | -69.16424 | 37961 ft | 490 kts | 340° |
| 2026-04-27 09:47 | 25.40524 | -69.17820 | 37957 ft | 490 kts | 341° |
| 2026-04-27 09:48 | 25.47197 | -69.19202 | 37959 ft | 488 kts | 340° |
| 2026-04-27 09:48 | 25.53899 | -69.20592 | 37961 ft | 488 kts | 341° |
| 2026-04-27 09:49 | 25.60554 | -69.21976 | 37957 ft | 488 kts | 341° |
| 2026-04-27 09:49 | 25.67265 | -69.23371 | 37976 ft | 488 kts | 341° |
| 2026-04-27 09:50 | 25.73898 | -69.24753 | 37979 ft | 489 kts | 341° |
| 2026-04-27 09:50 | 25.80633 | -69.26157 | 37958 ft | 488 kts | 341° |
| 2026-04-27 09:51 | 25.87323 | -69.27553 | 37975 ft | 488 kts | 341° |
| 2026-04-27 09:51 | 25.93999 | -69.28947 | 37965 ft | 488 kts | 341° |
| 2026-04-27 09:52 | 26.00657 | -69.30339 | 37969 ft | 487 kts | 341° |
| 2026-04-27 09:52 | 26.07338 | -69.31737 | 37976 ft | 487 kts | 341° |
| 2026-04-27 09:53 | 26.13963 | -69.33125 | 37965 ft | 485 kts | 341° |
| 2026-04-27 09:53 | 26.20599 | -69.34518 | 37974 ft | 485 kts | 341° |
| 2026-04-27 09:54 | 26.27221 | -69.35910 | 37985 ft | 484 kts | 342° |
| 2026-04-27 09:54 | 26.33870 | -69.37309 | 37965 ft | 483 kts | 342° |
| 2026-04-27 09:55 | 26.40442 | -69.38693 | 37974 ft | 482 kts | 342° |
| 2026-04-27 09:55 | 26.50314 | -69.40775 | 37972 ft | 481 kts | 342° |
| 2026-04-27 09:56 | 26.56939 | -69.42173 | 37979 ft | 481 kts | 342° |
| 2026-04-27 09:56 | 26.63504 | -69.43562 | 37968 ft | 481 kts | 342° |
| 2026-04-27 09:57 | 26.70071 | -69.44952 | 37969 ft | 481 kts | 342° |
| 2026-04-27 09:57 | 26.71151 | -69.45180 | 37968 ft | 481 kts | 342° |